createdAt,value
2023-04-11T00:00:46.876Z,4.22
2023-04-11T00:05:38.671Z,3.55
2023-04-11T00:10:30.564Z,3.88
2023-04-11T00:15:24.290Z,4.43
2023-04-11T00:20:16.265Z,4.22
2023-04-11T00:25:08.687Z,5.35
2023-04-11T00:30:00.906Z,3.38
2023-04-11T00:34:52.844Z,4.15
2023-04-11T00:39:50.530Z,4.57
2023-04-11T00:44:42.390Z,4.07
2023-04-11T00:49:34.859Z,3.25
2023-04-11T00:54:30.282Z,4.10
2023-04-11T00:59:23.175Z,3.25
2023-04-11T01:04:17.621Z,4.72
2023-04-11T01:09:09.433Z,4.10
2023-04-11T01:14:01.402Z,3.42
2023-04-11T01:18:54.021Z,4.97
2023-04-11T01:23:49.105Z,3.17
2023-04-11T01:28:41.116Z,4.53
2023-04-11T01:33:33.094Z,6.53
2023-04-11T01:38:25.198Z,3.22
2023-04-11T01:43:17.065Z,3.47
2023-04-11T01:48:08.964Z,5.00
2023-04-11T01:53:01.000Z,3.13
2023-04-11T01:57:54.602Z,3.80
2023-04-11T02:02:46.552Z,3.22
2023-04-11T02:07:38.388Z,3.45
2023-04-11T02:12:30.262Z,2.70
2023-04-11T02:17:25.993Z,3.38
2023-04-11T02:22:17.908Z,3.65
2023-04-11T02:27:11.445Z,3.72
2023-04-11T02:32:03.564Z,3.58
2023-04-11T02:36:55.961Z,3.40
2023-04-11T02:41:47.781Z,3.35
2023-04-11T02:46:39.629Z,5.07
2023-04-11T02:51:33.804Z,5.80
2023-04-11T02:56:25.630Z,4.00
2023-04-11T03:01:25.183Z,3.47
2023-04-11T03:06:18.793Z,5.65
2023-04-11T03:11:12.839Z,6.55
2023-04-11T03:16:07.089Z,5.65
2023-04-11T03:20:59.118Z,3.63
2023-04-11T03:25:52.040Z,6.40
2023-04-11T03:30:44.733Z,4.03
2023-04-11T03:35:39.313Z,4.07
2023-04-11T03:40:31.220Z,5.25
2023-04-11T03:45:31.670Z,4.47
2023-04-11T03:50:26.921Z,4.50
2023-04-11T03:55:23.815Z,3.78
2023-04-11T04:00:16.095Z,4.10
2023-04-11T04:05:13.251Z,4.38
2023-04-11T04:10:07.789Z,4.47
2023-04-11T04:15:00.619Z,8.18
2023-04-11T04:19:52.643Z,4.63
2023-04-11T04:24:49.074Z,4.13
2023-04-11T04:29:48.320Z,5.10
2023-04-11T04:34:59.076Z,5.60
2023-04-11T04:39:57.149Z,8.18
2023-04-11T04:49:46.782Z,4.25
2023-04-11T04:54:40.649Z,5.60
2023-04-11T04:59:33.383Z,9.68
2023-04-11T05:04:34.358Z,6.57
2023-04-11T05:09:27.784Z,4.90
2023-04-11T05:14:29.241Z,5.88
2023-04-11T05:19:21.186Z,4.53
2023-04-11T05:24:15.770Z,4.40
2023-04-11T05:29:09.426Z,4.82
2023-04-11T05:34:02.457Z,9.25
2023-04-11T05:38:54.453Z,6.95
2023-04-11T05:43:46.360Z,5.82
2023-04-11T05:48:38.613Z,6.97
2023-04-11T05:53:30.676Z,11.25
2023-04-11T05:58:23.269Z,6.32
2023-04-11T06:03:15.277Z,4.90
2023-04-11T06:08:08.029Z,4.22
2023-04-11T06:12:59.846Z,4.82
2023-04-11T06:17:51.775Z,7.05
2023-04-11T06:22:43.993Z,6.88
2023-04-11T06:27:36.176Z,7.15
2023-04-11T06:32:29.643Z,14.30
2023-04-11T06:37:21.647Z,9.40
2023-04-11T06:42:13.953Z,6.95
2023-04-11T06:47:08.832Z,5.88
2023-04-11T06:52:03.706Z,7.10
2023-04-11T06:56:59.623Z,6.45
2023-04-11T07:01:51.991Z,10.90
2023-04-11T07:06:43.891Z,9.90
2023-04-11T07:11:36.166Z,8.88
2023-04-11T07:16:28.137Z,10.65
2023-04-11T07:21:23.787Z,9.90
2023-04-11T07:26:17.079Z,8.10
2023-04-11T07:31:09.926Z,9.68
2023-04-11T07:36:01.770Z,10.85
2023-04-11T07:40:53.977Z,6.38
2023-04-11T07:45:45.888Z,9.38
2023-04-11T07:50:37.702Z,9.32
2023-04-11T07:55:29.564Z,8.38
2023-04-11T08:00:23.114Z,10.25
2023-04-11T08:05:15.044Z,10.18
2023-04-11T08:10:07.769Z,8.70
2023-04-11T08:15:02.510Z,7.68
2023-04-11T08:19:54.664Z,8.00
2023-04-11T08:24:46.504Z,9.23
2023-04-11T08:29:38.253Z,6.95
2023-04-11T08:34:32.669Z,7.70
2023-04-11T08:39:24.571Z,6.57
2023-04-11T08:44:16.420Z,9.82
2023-04-11T08:49:08.415Z,12.40
2023-04-11T08:54:05.617Z,11.10
2023-04-11T08:58:57.458Z,9.27
2023-04-11T09:03:52.597Z,9.30
2023-04-11T09:08:44.403Z,8.02
2023-04-11T09:13:36.346Z,9.07
2023-04-11T09:18:36.824Z,10.25
2023-04-11T09:23:29.057Z,7.47
2023-04-11T09:28:20.861Z,9.73
2023-04-11T09:33:28.716Z,9.32
2023-04-11T09:38:32.183Z,9.95
2023-04-11T09:43:24.588Z,10.05
2023-04-11T09:48:16.729Z,11.13
2023-04-11T09:53:10.668Z,13.05
2023-04-11T09:58:04.120Z,11.30
2023-04-11T10:02:56.887Z,12.40
2023-04-11T10:07:59.828Z,11.88
2023-04-11T10:12:51.923Z,11.68
2023-04-11T10:18:13.103Z,11.10
2023-04-11T10:23:05.992Z,11.32
2023-04-11T10:28:04.267Z,10.13
2023-04-11T10:33:16.264Z,11.70
2023-04-11T10:38:49.260Z,10.40
2023-04-11T10:43:41.373Z,10.77
2023-04-11T10:49:05.562Z,10.32
2023-04-11T10:54:00.533Z,9.88
2023-04-11T10:58:53.651Z,11.85
2023-04-11T11:03:53.608Z,12.48
2023-04-11T11:08:47.090Z,8.18
2023-04-11T11:13:43.899Z,6.55
2023-04-11T11:18:36.450Z,8.25
2023-04-11T11:23:28.393Z,4.90
2023-04-11T11:28:20.175Z,3.80
2023-04-11T11:33:17.470Z,5.72
2023-04-11T11:38:09.334Z,7.22
2023-04-11T11:43:01.218Z,5.55
2023-04-11T11:47:53.042Z,3.30
2023-04-11T11:52:44.986Z,4.93
2023-04-11T11:57:37.799Z,5.90
2023-04-11T12:02:29.876Z,5.35
2023-04-11T12:07:23.028Z,3.55
2023-04-11T12:12:17.401Z,7.03
2023-04-11T12:17:09.161Z,7.78
2023-04-11T12:22:02.066Z,3.58
2023-04-11T12:27:06.092Z,3.28
2023-04-11T12:31:59.045Z,3.40
2023-04-11T12:36:50.918Z,6.72
2023-04-11T12:41:42.694Z,5.03
2023-04-11T12:46:34.504Z,9.00
2023-04-11T12:51:26.464Z,4.40
2023-04-11T12:56:18.334Z,3.25
2023-04-11T13:01:10.110Z,5.70
2023-04-11T13:06:01.900Z,5.25
2023-04-11T13:10:55.429Z,4.05
2023-04-11T13:15:47.890Z,8.32
2023-04-11T13:20:39.697Z,5.53
2023-04-11T13:25:31.477Z,3.03
2023-04-11T13:30:23.290Z,5.43
2023-04-11T13:35:15.049Z,3.22
2023-04-11T13:40:08.643Z,2.92
2023-04-11T13:45:00.522Z,2.60
2023-04-11T13:49:52.321Z,3.42
2023-04-11T13:54:44.147Z,3.05
2023-04-11T13:59:36.476Z,3.15
2023-04-11T14:04:28.418Z,2.78
2023-04-11T14:09:20.347Z,5.43
2023-04-11T14:14:12.133Z,4.03
2023-04-11T14:19:03.896Z,5.00
2023-04-11T14:23:56.115Z,3.53
2023-04-11T14:28:48.194Z,3.58
2023-04-11T14:33:40.024Z,3.70
2023-04-11T14:38:31.800Z,5.25
2023-04-11T14:43:23.583Z,2.80
2023-04-11T14:48:16.228Z,5.15
2023-04-11T14:53:08.086Z,2.75
2023-04-11T14:57:59.880Z,2.95
2023-04-11T15:02:54.598Z,4.28
2023-04-11T15:07:48.300Z,2.15
2023-04-11T15:12:40.359Z,4.30
2023-04-11T15:17:38.734Z,2.30
2023-04-11T15:22:30.557Z,2.88
2023-04-11T15:27:22.369Z,1.83
2023-04-11T15:32:14.151Z,1.80
2023-04-11T15:37:11.536Z,1.80
2023-04-11T15:42:04.119Z,3.03
2023-04-11T15:46:56.053Z,1.77
2023-04-11T15:51:47.920Z,3.45
2023-04-11T15:56:39.761Z,2.63
2023-04-11T16:01:31.788Z,5.03
2023-04-11T16:06:23.663Z,1.50
2023-04-11T16:11:15.575Z,5.25
2023-04-11T16:16:10.692Z,4.13
2023-04-11T16:21:02.666Z,2.20
2023-04-11T16:25:54.486Z,4.43
2023-04-11T16:30:46.313Z,2.00
2023-04-11T16:35:38.149Z,3.95
2023-04-11T16:40:31.921Z,3.42
2023-04-11T16:45:24.005Z,3.63
2023-04-11T16:50:16.091Z,2.60
2023-04-11T16:55:08.220Z,5.60
2023-04-11T17:00:00.231Z,2.10
2023-04-11T17:04:51.991Z,2.80
2023-04-11T17:09:47.641Z,4.40
2023-04-11T17:14:39.490Z,2.35
2023-04-11T17:19:31.800Z,3.08
2023-04-11T17:24:23.663Z,4.03
2023-04-11T17:29:15.814Z,4.25
2023-04-11T17:34:07.604Z,5.50
2023-04-11T17:39:00.037Z,1.98
2023-04-11T17:43:55.976Z,1.67
2023-04-11T17:48:47.960Z,2.42
2023-04-11T17:53:39.796Z,1.95
2023-04-11T17:58:32.129Z,2.20
2023-04-11T18:03:25.850Z,1.50
2023-04-11T18:08:18.157Z,3.75
2023-04-11T18:13:10.012Z,4.03
2023-04-11T18:18:05.429Z,1.88
2023-04-11T18:22:57.732Z,3.40
2023-04-11T18:27:49.533Z,3.05
2023-04-11T18:32:47.053Z,2.85
2023-04-11T18:37:42.678Z,3.38
2023-04-11T18:42:34.537Z,1.48
2023-04-11T18:47:26.493Z,0.68
2023-04-11T18:52:18.373Z,2.17
2023-04-11T18:57:12.150Z,2.25
2023-04-11T19:02:05.844Z,1.73
2023-04-11T19:06:59.211Z,2.03
2023-04-11T19:11:51.042Z,1.10
2023-04-11T19:16:44.386Z,2.67
2023-04-11T19:21:36.324Z,2.10
2023-04-11T19:26:28.550Z,1.15
2023-04-11T19:31:21.191Z,1.95
2023-04-11T19:36:13.283Z,1.23
2023-04-11T19:41:14.894Z,1.63
2023-04-11T19:46:07.358Z,2.00
2023-04-11T19:51:01.042Z,1.77
2023-04-11T19:55:54.368Z,1.27
2023-04-11T20:00:46.211Z,2.65
2023-04-11T20:05:38.008Z,3.08
2023-04-11T20:10:30.729Z,1.45
2023-04-11T20:15:23.052Z,2.08
2023-04-11T20:20:15.766Z,3.05
2023-04-11T20:25:08.209Z,3.47
2023-04-11T20:30:00.873Z,1.55
2023-04-11T20:34:52.760Z,2.55
2023-04-11T20:39:44.639Z,3.90
2023-04-11T20:44:37.037Z,3.47
2023-04-11T20:49:31.905Z,3.00
2023-04-11T20:54:24.097Z,2.15
2023-04-11T20:59:16.020Z,2.70
2023-04-11T21:04:09.985Z,2.15
2023-04-11T21:09:04.208Z,2.50
2023-04-11T21:13:56.249Z,2.10
2023-04-11T21:18:48.205Z,2.65
2023-04-11T21:23:40.049Z,1.85
2023-04-11T21:28:32.340Z,3.33
2023-04-11T21:33:24.244Z,3.05
2023-04-11T21:38:16.157Z,3.30
2023-04-11T21:43:07.950Z,2.28
2023-04-11T21:47:59.779Z,3.50
2023-04-11T21:52:52.988Z,3.17
2023-04-11T21:57:44.848Z,2.55
2023-04-11T22:02:37.378Z,3.38
2023-04-11T22:07:33.176Z,2.33
2023-04-11T22:12:29.339Z,2.03
2023-04-11T22:17:21.294Z,4.40
2023-04-11T22:22:13.389Z,3.83
2023-04-11T22:27:06.431Z,2.65
2023-04-11T22:31:59.808Z,2.58
2023-04-11T22:36:51.672Z,2.90
2023-04-11T22:41:47.867Z,2.58
2023-04-11T22:46:39.752Z,1.88
2023-04-11T22:51:31.749Z,2.20
2023-04-11T22:56:23.560Z,2.75
2023-04-11T23:01:15.805Z,2.60
2023-04-11T23:06:08.225Z,2.80
2023-04-11T23:11:00.138Z,4.32
2023-04-11T23:15:52.615Z,4.28
2023-04-11T23:20:45.693Z,2.75
2023-04-11T23:25:43.156Z,5.50
2023-04-11T23:30:36.021Z,5.10
2023-04-11T23:35:28.449Z,4.07
2023-04-11T23:40:20.353Z,4.72
2023-04-11T23:45:12.883Z,5.30
2023-04-11T23:50:04.972Z,7.20
2023-04-11T23:54:57.326Z,4.35
2023-04-11T23:59:49.193Z,3.67
